sensor_id;sensor_type;location;lat;lon;timestamp;temperature;humidity
20422;DHT22;10370;53.102;18.034;2023-04-28T00:02:03;0.50;99.90
20422;DHT22;10370;53.102;18.034;2023-04-28T00:07:26;0.40;99.90
20422;DHT22;10370;53.102;18.034;2023-04-28T00:12:54;0.30;99.90
20422;DHT22;10370;53.102;18.034;2023-04-28T00:18:22;0.20;99.90
20422;DHT22;10370;53.102;18.034;2023-04-28T00:23:47;0.10;99.90
20422;DHT22;10370;53.102;18.034;2023-04-28T00:29:12;0.10;99.90
20422;DHT22;10370;53.102;18.034;2023-04-28T00:34:37;0.10;99.90
20422;DHT22;10370;53.102;18.034;2023-04-28T00:40:02;0.00;99.90
20422;DHT22;10370;53.102;18.034;2023-04-28T00:45:28;-0.10;99.90
20422;DHT22;10370;53.102;18.034;2023-04-28T00:51:23;-0.10;99.90
20422;DHT22;10370;53.102;18.034;2023-04-28T00:56:56;-0.10;99.90
20422;DHT22;10370;53.102;18.034;2023-04-28T01:02:23;-0.20;99.90
20422;DHT22;10370;53.102;18.034;2023-04-28T01:07:49;-0.30;99.90
20422;DHT22;10370;53.102;18.034;2023-04-28T01:13:14;-0.30;99.90
20422;DHT22;10370;53.102;18.034;2023-04-28T01:18:53;-0.30;99.90
20422;DHT22;10370;53.102;18.034;2023-04-28T01:24:25;-0.50;99.90
20422;DHT22;10370;53.102;18.034;2023-04-28T01:29:51;-0.50;99.90
20422;DHT22;10370;53.102;18.034;2023-04-28T01:35:14;-0.50;99.90
20422;DHT22;10370;53.102;18.034;2023-04-28T01:40:37;-0.50;99.90
20422;DHT22;10370;53.102;18.034;2023-04-28T01:52:02;-0.60;99.90
20422;DHT22;10370;53.102;18.034;2023-04-28T01:57:28;-0.60;99.90
20422;DHT22;10370;53.102;18.034;2023-04-28T02:02:57;-0.60;99.90
20422;DHT22;10370;53.102;18.034;2023-04-28T02:08:40;-0.60;99.90
20422;DHT22;10370;53.102;18.034;2023-04-28T02:14:09;-0.70;99.90
20422;DHT22;10370;53.102;18.034;2023-04-28T02:19:34;-0.80;99.90
20422;DHT22;10370;53.102;18.034;2023-04-28T02:24:59;-0.90;99.90
20422;DHT22;10370;53.102;18.034;2023-04-28T02:30:24;-1.00;99.90
20422;DHT22;10370;53.102;18.034;2023-04-28T02:35:58;-1.00;99.90
20422;DHT22;10370;53.102;18.034;2023-04-28T02:41:26;-1.00;99.90
20422;DHT22;10370;53.102;18.034;2023-04-28T02:46:51;-0.90;99.90
20422;DHT22;10370;53.102;18.034;2023-04-28T02:52:26;-1.00;99.90
20422;DHT22;10370;53.102;18.034;2023-04-28T02:57:51;-1.20;99.90
20422;DHT22;10370;53.102;18.034;2023-04-28T03:03:14;-1.40;99.90
20422;DHT22;10370;53.102;18.034;2023-04-28T03:08:39;-1.30;99.90
20422;DHT22;10370;53.102;18.034;2023-04-28T03:14:02;-1.30;99.90
20422;DHT22;10370;53.102;18.034;2023-04-28T03:19:27;-1.20;99.90
20422;DHT22;10370;53.102;18.034;2023-04-28T03:25:05;-1.20;99.90
20422;DHT22;10370;53.102;18.034;2023-04-28T03:30:36;-1.30;99.90
20422;DHT22;10370;53.102;18.034;2023-04-28T03:35:57;-1.40;99.90
20422;DHT22;10370;53.102;18.034;2023-04-28T03:41:22;-1.30;99.90
20422;DHT22;10370;53.102;18.034;2023-04-28T03:46:50;-1.20;99.90
20422;DHT22;10370;53.102;18.034;2023-04-28T03:52:15;-1.10;99.90
20422;DHT22;10370;53.102;18.034;2023-04-28T03:57:47;-1.00;99.90
20422;DHT22;10370;53.102;18.034;2023-04-28T04:03:13;-0.90;99.90
20422;DHT22;10370;53.102;18.034;2023-04-28T04:08:36;-1.00;99.90
20422;DHT22;10370;53.102;18.034;2023-04-28T04:14:01;-0.80;99.90
20422;DHT22;10370;53.102;18.034;2023-04-28T04:19:24;-0.50;99.90
20422;DHT22;10370;53.102;18.034;2023-04-28T04:24:51;-0.10;99.90
20422;DHT22;10370;53.102;18.034;2023-04-28T04:30:17;0.30;99.90
20422;DHT22;10370;53.102;18.034;2023-04-28T04:36:00;0.60;99.90
20422;DHT22;10370;53.102;18.034;2023-04-28T04:41:32;1.70;99.90
20422;DHT22;10370;53.102;18.034;2023-04-28T04:46:55;3.30;99.90
20422;DHT22;10370;53.102;18.034;2023-04-28T04:52:20;5.60;99.90
20422;DHT22;10370;53.102;18.034;2023-04-28T04:57:43;7.40;99.90
20422;DHT22;10370;53.102;18.034;2023-04-28T05:03:05;8.00;99.90
20422;DHT22;10370;53.102;18.034;2023-04-28T05:08:28;8.90;99.90
20422;DHT22;10370;53.102;18.034;2023-04-28T05:13:51;10.20;99.90
20422;DHT22;10370;53.102;18.034;2023-04-28T05:19:14;11.60;99.90
20422;DHT22;10370;53.102;18.034;2023-04-28T05:24:38;12.30;99.90
20422;DHT22;10370;53.102;18.034;2023-04-28T05:30:04;13.70;99.90
20422;DHT22;10370;53.102;18.034;2023-04-28T05:35:28;13.80;99.80
20422;DHT22;10370;53.102;18.034;2023-04-28T05:40:52;14.40;97.20
20422;DHT22;10370;53.102;18.034;2023-04-28T05:46:18;14.70;94.80
20422;DHT22;10370;53.102;18.034;2023-04-28T05:51:48;15.40;94.30
20422;DHT22;10370;53.102;18.034;2023-04-28T05:57:10;14.60;93.10
20422;DHT22;10370;53.102;18.034;2023-04-28T06:02:33;12.30;95.70
20422;DHT22;10370;53.102;18.034;2023-04-28T06:07:54;9.90;99.90
20422;DHT22;10370;53.102;18.034;2023-04-28T06:13:15;8.90;99.90
20422;DHT22;10370;53.102;18.034;2023-04-28T06:18:36;8.60;99.90
20422;DHT22;10370;53.102;18.034;2023-04-28T06:24:00;8.30;99.90
20422;DHT22;10370;53.102;18.034;2023-04-28T06:29:26;8.10;99.90
20422;DHT22;10370;53.102;18.034;2023-04-28T06:34:48;8.30;99.90
20422;DHT22;10370;53.102;18.034;2023-04-28T06:40:12;8.30;99.90
20422;DHT22;10370;53.102;18.034;2023-04-28T06:45:37;8.30;99.90
20422;DHT22;10370;53.102;18.034;2023-04-28T06:51:00;8.50;99.90
20422;DHT22;10370;53.102;18.034;2023-04-28T06:56:23;8.70;99.90
20422;DHT22;10370;53.102;18.034;2023-04-28T07:01:46;8.90;99.90
20422;DHT22;10370;53.102;18.034;2023-04-28T07:07:10;8.90;99.90
20422;DHT22;10370;53.102;18.034;2023-04-28T07:12:33;9.10;99.90
20422;DHT22;10370;53.102;18.034;2023-04-28T07:17:56;9.30;99.90
20422;DHT22;10370;53.102;18.034;2023-04-28T07:23:17;9.40;99.90
20422;DHT22;10370;53.102;18.034;2023-04-28T07:28:39;9.60;99.90
20422;DHT22;10370;53.102;18.034;2023-04-28T07:34:03;9.90;99.90
20422;DHT22;10370;53.102;18.034;2023-04-28T07:39:24;10.10;99.90
20422;DHT22;10370;53.102;18.034;2023-04-28T07:44:45;10.40;99.90
20422;DHT22;10370;53.102;18.034;2023-04-28T07:50:07;10.60;99.90
20422;DHT22;10370;53.102;18.034;2023-04-28T07:55:28;10.50;99.90
20422;DHT22;10370;53.102;18.034;2023-04-28T08:00:49;10.60;97.00
20422;DHT22;10370;53.102;18.034;2023-04-28T08:06:11;10.80;96.80
20422;DHT22;10370;53.102;18.034;2023-04-28T08:11:33;11.20;94.50
20422;DHT22;10370;53.102;18.034;2023-04-28T08:16:56;11.20;93.00
20422;DHT22;10370;53.102;18.034;2023-04-28T08:22:17;11.70;92.80
20422;DHT22;10370;53.102;18.034;2023-04-28T08:27:41;11.90;92.20
20422;DHT22;10370;53.102;18.034;2023-04-28T08:33:05;12.10;91.30
20422;DHT22;10370;53.102;18.034;2023-04-28T08:38:28;11.90;88.70
20422;DHT22;10370;53.102;18.034;2023-04-28T08:43:49;12.10;89.50
20422;DHT22;10370;53.102;18.034;2023-04-28T08:49:15;12.40;91.40
20422;DHT22;10370;53.102;18.034;2023-04-28T08:54:41;11.80;87.30
20422;DHT22;10370;53.102;18.034;2023-04-28T09:00:07;11.40;86.90
20422;DHT22;10370;53.102;18.034;2023-04-28T09:05:29;12.20;88.10
20422;DHT22;10370;53.102;18.034;2023-04-28T09:11:08;12.30;89.10
20422;DHT22;10370;53.102;18.034;2023-04-28T09:16:39;12.30;85.00
20422;DHT22;10370;53.102;18.034;2023-04-28T09:22:05;12.20;87.70
20422;DHT22;10370;53.102;18.034;2023-04-28T09:27:44;12.20;84.60
20422;DHT22;10370;53.102;18.034;2023-04-28T09:33:06;12.50;82.90
20422;DHT22;10370;53.102;18.034;2023-04-28T09:38:42;12.50;81.80
20422;DHT22;10370;53.102;18.034;2023-04-28T09:44:18;12.10;82.10
20422;DHT22;10370;53.102;18.034;2023-04-28T09:49:54;12.10;83.30
20422;DHT22;10370;53.102;18.034;2023-04-28T09:55:21;12.40;82.20
20422;DHT22;10370;53.102;18.034;2023-04-28T10:00:48;12.40;81.70
20422;DHT22;10370;53.102;18.034;2023-04-28T10:06:13;12.40;81.60
20422;DHT22;10370;53.102;18.034;2023-04-28T10:11:34;12.60;80.00
20422;DHT22;10370;53.102;18.034;2023-04-28T10:16:59;12.00;77.10
20422;DHT22;10370;53.102;18.034;2023-04-28T10:27:48;12.50;79.20
20422;DHT22;10370;53.102;18.034;2023-04-28T10:38:35;12.50;77.40
20422;DHT22;10370;53.102;18.034;2023-04-28T10:43:58;12.70;79.20
20422;DHT22;10370;53.102;18.034;2023-04-28T10:49:19;12.80;75.80
20422;DHT22;10370;53.102;18.034;2023-04-28T10:54:41;12.80;78.80
20422;DHT22;10370;53.102;18.034;2023-04-28T11:00:29;13.00;78.30
20422;DHT22;10370;53.102;18.034;2023-04-28T11:06:17;12.80;76.80
20422;DHT22;10370;53.102;18.034;2023-04-28T11:17:40;12.20;76.60
20422;DHT22;10370;53.102;18.034;2023-04-28T11:23:03;12.50;76.60
20422;DHT22;10370;53.102;18.034;2023-04-28T11:28:27;12.30;76.80
20422;DHT22;10370;53.102;18.034;2023-04-28T11:34:11;12.70;80.90
20422;DHT22;10370;53.102;18.034;2023-04-28T11:39:34;13.00;78.10
20422;DHT22;10370;53.102;18.034;2023-04-28T11:44:55;13.00;75.30
20422;DHT22;10370;53.102;18.034;2023-04-28T11:50:36;12.90;75.80
20422;DHT22;10370;53.102;18.034;2023-04-28T11:56:06;13.10;76.30
20422;DHT22;10370;53.102;18.034;2023-04-28T12:01:31;13.20;78.30
20422;DHT22;10370;53.102;18.034;2023-04-28T12:07:01;13.10;77.40
20422;DHT22;10370;53.102;18.034;2023-04-28T12:12:33;13.30;82.20
20422;DHT22;10370;53.102;18.034;2023-04-28T12:18:09;13.50;81.00
20422;DHT22;10370;53.102;18.034;2023-04-28T12:23:40;13.30;79.60
20422;DHT22;10370;53.102;18.034;2023-04-28T12:29:37;13.60;80.60
20422;DHT22;10370;53.102;18.034;2023-04-28T12:35:06;13.90;80.30
20422;DHT22;10370;53.102;18.034;2023-04-28T12:40:30;13.90;79.90
20422;DHT22;10370;53.102;18.034;2023-04-28T12:46:00;13.90;82.50
20422;DHT22;10370;53.102;18.034;2023-04-28T12:51:22;14.40;82.20
20422;DHT22;10370;53.102;18.034;2023-04-28T12:56:44;14.30;81.60
20422;DHT22;10370;53.102;18.034;2023-04-28T13:02:06;14.20;82.80
20422;DHT22;10370;53.102;18.034;2023-04-28T13:07:36;14.10;81.90
20422;DHT22;10370;53.102;18.034;2023-04-28T13:13:02;14.20;85.80
20422;DHT22;10370;53.102;18.034;2023-04-28T13:18:28;14.20;84.00
20422;DHT22;10370;53.102;18.034;2023-04-28T13:23:54;13.80;83.70
20422;DHT22;10370;53.102;18.034;2023-04-28T13:29:26;14.00;82.80
20422;DHT22;10370;53.102;18.034;2023-04-28T13:34:47;14.20;84.70
20422;DHT22;10370;53.102;18.034;2023-04-28T13:40:09;14.30;84.00
20422;DHT22;10370;53.102;18.034;2023-04-28T13:45:31;14.10;83.30
20422;DHT22;10370;53.102;18.034;2023-04-28T13:50:59;14.00;85.60
20422;DHT22;10370;53.102;18.034;2023-04-28T13:56:25;14.00;84.80
20422;DHT22;10370;53.102;18.034;2023-04-28T14:01:55;13.90;84.60
20422;DHT22;10370;53.102;18.034;2023-04-28T14:07:20;14.10;85.10
20422;DHT22;10370;53.102;18.034;2023-04-28T14:12:44;13.80;84.80
20422;DHT22;10370;53.102;18.034;2023-04-28T14:18:08;13.80;84.80
20422;DHT22;10370;53.102;18.034;2023-04-28T14:23:32;13.90;84.60
20422;DHT22;10370;53.102;18.034;2023-04-28T14:28:57;14.00;87.00
20422;DHT22;10370;53.102;18.034;2023-04-28T14:34:22;14.10;85.80
20422;DHT22;10370;53.102;18.034;2023-04-28T14:39:44;14.30;88.10
20422;DHT22;10370;53.102;18.034;2023-04-28T14:45:12;14.60;87.40
20422;DHT22;10370;53.102;18.034;2023-04-28T14:50:41;14.70;86.90
20422;DHT22;10370;53.102;18.034;2023-04-28T14:56:16;14.30;86.80
20422;DHT22;10370;53.102;18.034;2023-04-28T15:01:45;14.60;87.20
20422;DHT22;10370;53.102;18.034;2023-04-28T15:07:12;14.50;87.60
20422;DHT22;10370;53.102;18.034;2023-04-28T15:12:38;14.40;88.40
20422;DHT22;10370;53.102;18.034;2023-04-28T15:18:02;14.40;88.50
20422;DHT22;10370;53.102;18.034;2023-04-28T15:23:26;14.40;89.30
20422;DHT22;10370;53.102;18.034;2023-04-28T15:28:58;14.40;90.00
20422;DHT22;10370;53.102;18.034;2023-04-28T15:34:25;14.40;90.00
20422;DHT22;10370;53.102;18.034;2023-04-28T15:39:54;14.60;90.60
20422;DHT22;10370;53.102;18.034;2023-04-28T15:45:24;14.60;90.10
20422;DHT22;10370;53.102;18.034;2023-04-28T15:50:53;14.70;90.30
20422;DHT22;10370;53.102;18.034;2023-04-28T15:56:21;14.60;89.80
20422;DHT22;10370;53.102;18.034;2023-04-28T16:01:51;14.40;89.40
20422;DHT22;10370;53.102;18.034;2023-04-28T16:07:16;14.40;90.60
20422;DHT22;10370;53.102;18.034;2023-04-28T16:12:42;14.20;90.40
20422;DHT22;10370;53.102;18.034;2023-04-28T16:18:08;14.30;90.30
20422;DHT22;10370;53.102;18.034;2023-04-28T16:23:33;14.20;91.30
20422;DHT22;10370;53.102;18.034;2023-04-28T16:28:57;14.30;91.00
20422;DHT22;10370;53.102;18.034;2023-04-28T16:34:22;14.40;91.40
20422;DHT22;10370;53.102;18.034;2023-04-28T16:39:47;14.30;91.10
20422;DHT22;10370;53.102;18.034;2023-04-28T16:45:13;14.10;90.70
20422;DHT22;10370;53.102;18.034;2023-04-28T16:50:42;14.00;90.70
20422;DHT22;10370;53.102;18.034;2023-04-28T16:56:04;13.90;91.40
20422;DHT22;10370;53.102;18.034;2023-04-28T17:01:31;13.80;91.50
20422;DHT22;10370;53.102;18.034;2023-04-28T17:06:54;13.70;92.10
20422;DHT22;10370;53.102;18.034;2023-04-28T17:12:18;13.60;91.80
20422;DHT22;10370;53.102;18.034;2023-04-28T17:17:48;13.50;92.30
20422;DHT22;10370;53.102;18.034;2023-04-28T17:23:14;13.40;92.40
20422;DHT22;10370;53.102;18.034;2023-04-28T17:28:37;13.40;92.40
20422;DHT22;10370;53.102;18.034;2023-04-28T17:34:03;13.30;92.90
20422;DHT22;10370;53.102;18.034;2023-04-28T17:39:30;13.20;92.70
20422;DHT22;10370;53.102;18.034;2023-04-28T17:44:57;13.10;93.50
20422;DHT22;10370;53.102;18.034;2023-04-28T17:50:18;12.80;93.90
20422;DHT22;10370;53.102;18.034;2023-04-28T17:55:44;12.60;94.30
20422;DHT22;10370;53.102;18.034;2023-04-28T18:01:10;12.40;94.40
20422;DHT22;10370;53.102;18.034;2023-04-28T18:06:33;12.30;94.90
20422;DHT22;10370;53.102;18.034;2023-04-28T18:12:00;12.10;95.10
20422;DHT22;10370;53.102;18.034;2023-04-28T18:23:42;11.70;96.00
20422;DHT22;10370;53.102;18.034;2023-04-28T18:29:05;11.60;96.50
20422;DHT22;10370;53.102;18.034;2023-04-28T18:34:33;11.40;96.60
20422;DHT22;10370;53.102;18.034;2023-04-28T18:40:02;11.30;97.00
20422;DHT22;10370;53.102;18.034;2023-04-28T18:45:45;11.20;97.30
20422;DHT22;10370;53.102;18.034;2023-04-28T18:51:09;11.10;97.20
20422;DHT22;10370;53.102;18.034;2023-04-28T18:56:38;11.00;97.70
20422;DHT22;10370;53.102;18.034;2023-04-28T19:02:02;10.80;98.00
20422;DHT22;10370;53.102;18.034;2023-04-28T19:07:26;10.70;98.30
20422;DHT22;10370;53.102;18.034;2023-04-28T19:12:48;10.60;98.70
20422;DHT22;10370;53.102;18.034;2023-04-28T19:18:15;10.60;99.00
20422;DHT22;10370;53.102;18.034;2023-04-28T19:23:43;10.50;99.20
20422;DHT22;10370;53.102;18.034;2023-04-28T19:29:10;10.40;99.50
20422;DHT22;10370;53.102;18.034;2023-04-28T19:34:43;10.40;99.70
20422;DHT22;10370;53.102;18.034;2023-04-28T19:40:19;10.30;99.90
20422;DHT22;10370;53.102;18.034;2023-04-28T19:45:47;10.40;99.90
20422;DHT22;10370;53.102;18.034;2023-04-28T19:51:13;10.30;99.90
20422;DHT22;10370;53.102;18.034;2023-04-28T19:56:36;10.30;99.90
20422;DHT22;10370;53.102;18.034;2023-04-28T20:02:04;10.30;99.90
20422;DHT22;10370;53.102;18.034;2023-04-28T20:07:32;10.30;99.90
20422;DHT22;10370;53.102;18.034;2023-04-28T20:13:00;10.40;99.90
20422;DHT22;10370;53.102;18.034;2023-04-28T20:18:24;10.40;99.90
20422;DHT22;10370;53.102;18.034;2023-04-28T20:23:46;10.40;99.90
